Time;durP1;ratioP1;P1;durP2;ratioP2;P2;SDS_P1;SDS_P2;PMS_P1;PMS_P2;Temp;Humidity;BMP_temperature;BMP_pressure;BME280_temperature;BME280_humidity;BME280_pressure;Samples;Min_cycle;Max_cycle;Signal;HPM_P1;HPM_P2
2020/12/31 00:01:13;;;;;;;4.10;3.13;;;;;;;;;;5003148;28;20233;-79
2020/12/31 00:03:43;;;;;;;6.43;3.60;;;;;;;;;;5023983;28;20236;-80
2020/12/31 00:06:19;;;;;;;6.20;3.33;;;;;;;;;;5020382;28;20236;-80
2020/12/31 00:08:50;;;;;;;5.37;3.13;;;;;;;;;;5021416;28;20203;-80
2020/12/31 00:11:21;;;;;;;4.73;3.03;;;;;;;;;;5007214;28;20232;-80
2020/12/31 00:13:52;;;;;;;4.93;3.37;;;;;;;;;;5014628;28;20232;-82
2020/12/31 00:16:24;;;;;;;8.00;3.63;;;;;;;;;;5034546;28;20207;-79
2020/12/31 00:18:55;;;;;;;5.30;3.47;;;;;;;;;;4983419;28;20233;-79
2020/12/31 00:21:24;;;;;;;7.93;3.67;;;;;;;;;;4988008;28;20201;-79
2020/12/31 00:23:55;;;;;;;5.13;3.93;;;;;;;;;;4979227;28;20227;-79
2020/12/31 00:26:24;;;;;;;7.50;4.00;;;;;;;;;;4993714;28;20220;-81
2020/12/31 00:28:56;;;;;;;6.63;4.00;;;;;;;;;;4995297;28;20185;-81
2020/12/31 00:31:30;;;;;;;5.03;3.83;;;;;;;;;;5025068;28;20242;-79
2020/12/31 00:34:00;;;;;;;5.87;3.77;;;;;;;;;;5032631;28;20218;-80
2020/12/31 00:36:31;;;;;;;5.53;4.10;;;;;;;;;;5020070;28;20188;-79
2020/12/31 00:39:01;;;;;;;7.50;4.80;;;;;;;;;;4999761;28;20232;-79
2020/12/31 00:41:31;;;;;;;7.30;5.10;;;;;;;;;;5015298;28;20612;-79
2020/12/31 00:44:06;;;;;;;6.40;4.30;;;;;;;;;;4993326;28;20191;-80
2020/12/31 00:46:37;;;;;;;6.40;4.13;;;;;;;;;;4980581;28;20232;-79
2020/12/31 00:49:05;;;;;;;5.87;4.10;;;;;;;;;;4994589;28;20224;-79
2020/12/31 00:51:34;;;;;;;6.10;4.20;;;;;;;;;;4982489;28;20708;-79
2020/12/31 00:54:04;;;;;;;5.37;4.20;;;;;;;;;;4976381;28;20723;-79
2020/12/31 00:56:34;;;;;;;5.80;4.20;;;;;;;;;;4967927;28;20229;-80
2020/12/31 00:59:04;;;;;;;5.47;3.83;;;;;;;;;;4976355;28;20252;-79
2020/12/31 01:01:35;;;;;;;5.80;4.13;;;;;;;;;;4965257;28;20233;-79
2020/12/31 01:04:07;;;;;;;5.13;3.93;;;;;;;;;;4971461;28;20200;-79
2020/12/31 01:06:38;;;;;;;7.03;4.33;;;;;;;;;;4965401;28;20233;-79
2020/12/31 01:09:08;;;;;;;7.33;4.20;;;;;;;;;;4977375;28;20240;-79
2020/12/31 01:11:38;;;;;;;5.60;4.27;;;;;;;;;;4976927;28;20232;-79
2020/12/31 01:14:09;;;;;;;6.13;4.20;;;;;;;;;;4984875;28;20230;-79
2020/12/31 01:16:40;;;;;;;7.97;4.17;;;;;;;;;;4987902;28;20658;-79
2020/12/31 01:19:13;;;;;;;5.33;3.60;;;;;;;;;;5000396;28;20228;-79
2020/12/31 01:21:46;;;;;;;6.93;3.93;;;;;;;;;;4966030;28;20221;-79
2020/12/31 01:24:15;;;;;;;5.40;3.50;;;;;;;;;;4993382;28;20215;-79
2020/12/31 01:26:45;;;;;;;3.90;3.37;;;;;;;;;;4973918;28;20237;-79
2020/12/31 01:29:16;;;;;;;5.27;3.70;;;;;;;;;;4979128;28;20229;-79
2020/12/31 01:31:48;;;;;;;5.03;3.53;;;;;;;;;;4994086;28;20610;-79
2020/12/31 01:34:19;;;;;;;5.20;3.50;;;;;;;;;;4987439;28;20240;-79
2020/12/31 01:36:53;;;;;;;5.33;3.40;;;;;;;;;;4973964;28;20233;-79
2020/12/31 01:39:23;;;;;;;6.60;4.50;;;;;;;;;;4973729;28;20741;-79
2020/12/31 01:41:52;;;;;;;8.67;5.73;;;;;;;;;;4977464;28;20245;-79
2020/12/31 01:44:23;;;;;;;7.90;5.90;;;;;;;;;;4994262;28;20712;-79
2020/12/31 01:46:52;;;;;;;6.93;5.30;;;;;;;;;;4976601;28;20240;-79
2020/12/31 01:49:24;;;;;;;7.57;5.80;;;;;;;;;;5021163;28;20224;-79
2020/12/31 01:51:55;;;;;;;6.57;5.33;;;;;;;;;;4979624;28;20232;-79
2020/12/31 01:54:26;;;;;;;9.20;6.23;;;;;;;;;;4977620;28;20237;-79
2020/12/31 01:56:57;;;;;;;10.27;6.03;;;;;;;;;;4999842;28;20238;-78
2020/12/31 01:59:27;;;;;;;9.27;6.40;;;;;;;;;;4997143;28;20235;-79
2020/12/31 02:01:56;;;;;;;10.30;6.57;;;;;;;;;;5016947;28;20235;-78
2020/12/31 02:04:26;;;;;;;9.87;6.37;;;;;;;;;;5002673;28;20233;-78
2020/12/31 02:06:54;;;;;;;8.20;5.93;;;;;;;;;;4998449;28;20243;-78
2020/12/31 02:09:23;;;;;;;9.47;5.70;;;;;;;;;;4984592;28;20228;-78
2020/12/31 02:11:51;;;;;;;9.07;6.60;;;;;;;;;;4979753;28;20245;-78
2020/12/31 02:14:20;;;;;;;7.57;5.47;;;;;;;;;;5002738;28;20229;-78
2020/12/31 02:16:49;;;;;;;8.20;5.93;;;;;;;;;;4975654;28;20221;-78
2020/12/31 02:19:18;;;;;;;8.30;5.93;;;;;;;;;;4980906;28;20259;-79
2020/12/31 02:21:48;;;;;;;8.57;5.20;;;;;;;;;;4980443;28;20217;-79
2020/12/31 02:24:17;;;;;;;7.50;5.10;;;;;;;;;;5012633;28;20232;-78
2020/12/31 02:26:47;;;;;;;7.67;5.17;;;;;;;;;;4981501;28;20221;-78
2020/12/31 02:29:16;;;;;;;6.93;4.93;;;;;;;;;;4999574;28;20244;-79
2020/12/31 02:31:46;;;;;;;7.00;4.73;;;;;;;;;;4985169;28;20229;-78
2020/12/31 02:34:14;;;;;;;5.63;4.50;;;;;;;;;;4978346;28;20579;-78
2020/12/31 02:36:42;;;;;;;7.13;4.40;;;;;;;;;;5007704;28;20229;-78
2020/12/31 02:39:13;;;;;;;8.33;4.70;;;;;;;;;;4979809;28;20232;-78
2020/12/31 02:41:41;;;;;;;8.13;5.00;;;;;;;;;;4986163;28;20240;-79
2020/12/31 02:44:09;;;;;;;6.33;4.70;;;;;;;;;;5004065;28;20223;-78
2020/12/31 02:46:37;;;;;;;7.40;4.97;;;;;;;;;;4973043;28;20234;-79
2020/12/31 02:49:06;;;;;;;8.17;4.93;;;;;;;;;;4989132;28;20243;-79
2020/12/31 02:51:35;;;;;;;7.00;5.03;;;;;;;;;;4981071;28;20208;-78
2020/12/31 02:54:03;;;;;;;6.63;4.63;;;;;;;;;;4990127;28;20224;-78
2020/12/31 02:56:32;;;;;;;6.87;4.80;;;;;;;;;;4983144;28;20229;-78
2020/12/31 02:59:01;;;;;;;6.70;4.97;;;;;;;;;;4970076;28;20300;-78
2020/12/31 03:01:29;;;;;;;6.50;4.77;;;;;;;;;;5013137;28;20233;-79
2020/12/31 03:03:57;;;;;;;7.90;5.10;;;;;;;;;;5007382;28;20233;-78
2020/12/31 03:06:25;;;;;;;7.67;5.40;;;;;;;;;;4983828;28;20604;-78
2020/12/31 03:08:52;;;;;;;8.40;5.60;;;;;;;;;;5014175;28;20240;-78
2020/12/31 03:11:22;;;;;;;7.43;5.47;;;;;;;;;;4980502;28;20699;-78
2020/12/31 03:13:51;;;;;;;6.70;5.13;;;;;;;;;;4998546;28;20244;-78
2020/12/31 03:16:20;;;;;;;6.83;5.70;;;;;;;;;;4976068;28;20233;-78
2020/12/31 03:18:48;;;;;;;7.00;5.40;;;;;;;;;;4991417;28;20229;-78
2020/12/31 03:21:16;;;;;;;8.37;6.40;;;;;;;;;;4985065;28;20224;-78
2020/12/31 03:23:44;;;;;;;7.03;5.97;;;;;;;;;;4997000;28;20232;-79
2020/12/31 03:26:12;;;;;;;10.20;6.37;;;;;;;;;;5005649;28;20240;-78
2020/12/31 03:28:40;;;;;;;7.60;6.43;;;;;;;;;;4977025;28;20227;-78
2020/12/31 03:31:09;;;;;;;8.40;6.07;;;;;;;;;;4976677;28;20234;-78
2020/12/31 03:33:37;;;;;;;10.33;6.67;;;;;;;;;;5003561;28;20239;-78
2020/12/31 03:36:05;;;;;;;9.63;6.47;;;;;;;;;;4999442;28;20309;-78
2020/12/31 03:38:33;;;;;;;8.73;6.50;;;;;;;;;;4997240;28;20228;-79
2020/12/31 03:41:01;;;;;;;8.97;7.33;;;;;;;;;;4996667;28;20237;-79
2020/12/31 03:43:29;;;;;;;8.77;6.10;;;;;;;;;;5020763;28;20252;-78
2020/12/31 03:45:57;;;;;;;8.43;6.37;;;;;;;;;;4987520;28;20233;-79
2020/12/31 03:48:25;;;;;;;8.77;7.17;;;;;;;;;;4976453;28;20237;-78
2020/12/31 03:50:53;;;;;;;9.57;6.83;;;;;;;;;;4988303;28;20612;-78
2020/12/31 03:53:21;;;;;;;10.07;6.90;;;;;;;;;;4979640;28;20244;-78
2020/12/31 03:55:48;;;;;;;8.07;6.40;;;;;;;;;;4977114;28;20205;-78
2020/12/31 03:58:16;;;;;;;9.73;6.73;;;;;;;;;;4970908;28;20241;-79
2020/12/31 04:00:44;;;;;;;9.70;7.40;;;;;;;;;;5004866;28;20228;-78
2020/12/31 04:03:12;;;;;;;9.33;7.10;;;;;;;;;;5003603;28;20229;-78
2020/12/31 04:05:41;;;;;;;13.37;7.97;;;;;;;;;;4983891;28;20209;-78
2020/12/31 04:08:09;;;;;;;9.77;7.30;;;;;;;;;;4985539;28;20233;-78
2020/12/31 04:10:37;;;;;;;9.50;6.77;;;;;;;;;;4980702;28;20228;-78
2020/12/31 04:13:05;;;;;;;10.43;7.30;;;;;;;;;;4975571;28;20744;-78
2020/12/31 04:15:33;;;;;;;10.53;7.60;;;;;;;;;;4970309;28;20232;-78
2020/12/31 04:18:01;;;;;;;10.37;7.83;;;;;;;;;;4992774;28;20609;-78
2020/12/31 04:20:29;;;;;;;9.73;8.10;;;;;;;;;;4989119;28;20583;-78
2020/12/31 04:22:57;;;;;;;10.80;7.63;;;;;;;;;;4985808;28;20234;-78
2020/12/31 04:25:25;;;;;;;9.77;7.20;;;;;;;;;;4979479;28;20235;-78
2020/12/31 04:27:53;;;;;;;11.77;8.17;;;;;;;;;;5003935;28;20246;-79
2020/12/31 04:30:21;;;;;;;10.17;7.33;;;;;;;;;;4975328;28;20229;-78
2020/12/31 04:32:49;;;;;;;12.17;8.10;;;;;;;;;;4987733;28;20264;-78
2020/12/31 04:35:16;;;;;;;11.43;8.07;;;;;;;;;;4971442;28;20228;-78
2020/12/31 04:37:44;;;;;;;11.57;7.67;;;;;;;;;;4971144;28;20231;-78
2020/12/31 04:40:13;;;;;;;12.73;8.57;;;;;;;;;;4969229;28;20314;-78
2020/12/31 04:42:41;;;;;;;9.97;8.00;;;;;;;;;;4983957;28;20243;-79
2020/12/31 04:45:09;;;;;;;14.73;9.73;;;;;;;;;;4973699;28;20232;-78
2020/12/31 04:47:44;;;;;;;11.70;8.30;;;;;;;;;;4990801;28;20244;-79
2020/12/31 04:50:12;;;;;;;10.93;8.17;;;;;;;;;;4978477;28;20229;-78
2020/12/31 04:52:40;;;;;;;10.43;7.80;;;;;;;;;;4994720;28;20718;-78
2020/12/31 04:55:09;;;;;;;12.17;8.47;;;;;;;;;;5011006;28;20229;-79
2020/12/31 04:57:37;;;;;;;12.73;8.60;;;;;;;;;;4974246;28;20248;-79
2020/12/31 05:00:05;;;;;;;11.47;7.80;;;;;;;;;;4990046;28;20228;-78
2020/12/31 05:02:34;;;;;;;12.57;8.13;;;;;;;;;;5001647;28;20240;-78
2020/12/31 05:05:02;;;;;;;15.00;9.63;;;;;;;;;;5015709;28;20239;-78
2020/12/31 05:07:29;;;;;;;14.83;10.30;;;;;;;;;;4992676;28;20233;-78
2020/12/31 05:10:09;;;;;;;12.67;9.23;;;;;;;;;;4973853;28;20703;-79
2020/12/31 05:12:38;;;;;;;12.03;8.67;;;;;;;;;;4987678;28;20235;-78
2020/12/31 05:15:06;;;;;;;13.87;9.93;;;;;;;;;;4990602;28;20236;-78
2020/12/31 05:17:35;;;;;;;14.23;9.70;;;;;;;;;;5003692;28;20229;-79
2020/12/31 05:20:14;;;;;;;12.67;9.23;;;;;;;;;;4981189;28;20608;-78
2020/12/31 05:22:42;;;;;;;13.63;9.80;;;;;;;;;;4970521;28;20729;-78
2020/12/31 05:25:10;;;;;;;13.80;9.90;;;;;;;;;;5012513;28;20227;-78
2020/12/31 05:27:38;;;;;;;16.97;10.50;;;;;;;;;;4991715;28;20241;-79
2020/12/31 05:30:07;;;;;;;15.10;10.60;;;;;;;;;;4975032;28;20228;-79
2020/12/31 05:32:36;;;;;;;14.40;9.83;;;;;;;;;;4968689;28;20229;-78
2020/12/31 05:35:10;;;;;;;14.97;9.73;;;;;;;;;;4982672;28;20718;-79
2020/12/31 05:37:38;;;;;;;13.37;10.10;;;;;;;;;;4967888;28;20222;-78
2020/12/31 05:40:07;;;;;;;12.83;9.03;;;;;;;;;;4989794;28;20233;-78
2020/12/31 05:42:36;;;;;;;13.33;8.67;;;;;;;;;;4994460;28;20236;-78
2020/12/31 05:45:11;;;;;;;10.83;8.33;;;;;;;;;;4982134;28;20243;-79
2020/12/31 05:47:48;;;;;;;11.60;8.70;;;;;;;;;;5009562;28;20641;-79
2020/12/31 05:50:19;;;;;;;13.00;9.57;;;;;;;;;;4964052;28;20201;-79
2020/12/31 05:52:48;;;;;;;12.80;8.70;;;;;;;;;;4984693;28;20707;-78
2020/12/31 05:55:17;;;;;;;11.47;8.87;;;;;;;;;;4966265;28;20711;-79
2020/12/31 05:57:50;;;;;;;12.43;9.03;;;;;;;;;;4973542;28;20232;-78
2020/12/31 06:00:20;;;;;;;11.07;7.40;;;;;;;;;;4975907;28;20212;-78
2020/12/31 06:02:50;;;;;;;11.10;7.73;;;;;;;;;;4978989;28;20229;-79
2020/12/31 06:05:20;;;;;;;10.07;7.77;;;;;;;;;;4977220;28;20205;-79
2020/12/31 06:07:49;;;;;;;9.63;7.50;;;;;;;;;;5000672;28;20235;-79
2020/12/31 06:10:24;;;;;;;12.27;8.07;;;;;;;;;;4991206;28;20232;-78
2020/12/31 06:12:54;;;;;;;10.33;7.53;;;;;;;;;;5008366;28;20631;-78
2020/12/31 06:15:27;;;;;;;10.83;7.70;;;;;;;;;;4967700;28;20233;-79
2020/12/31 06:18:02;;;;;;;9.97;7.67;;;;;;;;;;4992277;28;20223;-79
2020/12/31 06:20:31;;;;;;;8.43;6.10;;;;;;;;;;4976200;28;20674;-79
2020/12/31 06:23:05;;;;;;;11.67;7.47;;;;;;;;;;5013822;28;20705;-78
2020/12/31 06:25:36;;;;;;;10.70;7.13;;;;;;;;;;4979397;28;20220;-78
2020/12/31 06:28:06;;;;;;;9.43;6.73;;;;;;;;;;4991522;28;20236;-79
2020/12/31 06:30:36;;;;;;;10.20;7.53;;;;;;;;;;5002436;28;20229;-79
2020/12/31 06:33:10;;;;;;;9.53;7.00;;;;;;;;;;5011909;28;20222;-81
2020/12/31 06:35:44;;;;;;;9.77;7.63;;;;;;;;;;5010718;28;20217;-81
2020/12/31 06:38:12;;;;;;;11.33;7.67;;;;;;;;;;5032788;28;20222;-79
2020/12/31 06:40:39;;;;;;;11.13;7.60;;;;;;;;;;5024412;28;20216;-79
2020/12/31 06:43:09;;;;;;;10.10;7.33;;;;;;;;;;5039174;28;20225;-80
2020/12/31 06:45:43;;;;;;;9.77;6.90;;;;;;;;;;5015066;28;20263;-78
2020/12/31 06:48:35;;;;;;;9.23;6.43;;;;;;;;;;4993604;28;20705;-78
2020/12/31 06:51:08;;;;;;;8.57;5.90;;;;;;;;;;4977812;28;20248;-78
2020/12/31 06:53:38;;;;;;;8.17;5.87;;;;;;;;;;4982300;28;20225;-78
2020/12/31 06:56:08;;;;;;;10.30;7.53;;;;;;;;;;5006649;28;20228;-78
2020/12/31 06:58:36;;;;;;;9.87;6.77;;;;;;;;;;4975997;28;20213;-79
2020/12/31 07:01:26;;;;;;;10.10;6.70;;;;;;;;;;4976540;28;20595;-78
2020/12/31 07:03:54;;;;;;;11.83;7.10;;;;;;;;;;4989050;28;20234;-78
2020/12/31 07:06:32;;;;;;;8.70;6.70;;;;;;;;;;4994658;28;20233;-78
2020/12/31 07:09:05;;;;;;;8.20;5.90;;;;;;;;;;5022516;28;20224;-78
2020/12/31 07:11:35;;;;;;;9.87;6.90;;;;;;;;;;4998847;28;20228;-78
2020/12/31 07:14:21;;;;;;;11.63;6.47;;;;;;;;;;5019548;28;20235;-78
2020/12/31 07:16:59;;;;;;;9.27;6.70;;;;;;;;;;5011182;28;20254;-78
2020/12/31 07:19:38;;;;;;;9.03;6.13;;;;;;;;;;5017968;28;20224;-79
2020/12/31 07:22:21;;;;;;;7.87;5.60;;;;;;;;;;4998715;28;20236;-78
2020/12/31 07:24:55;;;;;;;8.27;6.23;;;;;;;;;;4994271;28;20596;-79
2020/12/31 07:27:27;;;;;;;9.33;5.77;;;;;;;;;;5000456;28;20229;-79
2020/12/31 07:30:03;;;;;;;8.87;5.77;;;;;;;;;;5026258;28;20227;-78
2020/12/31 07:32:59;;;;;;;7.37;5.43;;;;;;;;;;5019061;28;20227;-79
2020/12/31 07:35:29;;;;;;;8.97;5.00;;;;;;;;;;5024536;28;20238;-79
2020/12/31 07:37:59;;;;;;;7.80;5.50;;;;;;;;;;4999944;28;20221;-79
2020/12/31 07:40:28;;;;;;;7.33;5.63;;;;;;;;;;5047175;28;20232;-79
2020/12/31 07:42:56;;;;;;;9.80;5.80;;;;;;;;;;5029725;28;20226;-80
2020/12/31 07:45:24;;;;;;;5.80;5.07;;;;;;;;;;5024926;28;20238;-79
2020/12/31 07:47:54;;;;;;;8.50;5.40;;;;;;;;;;5047903;28;20250;-79
2020/12/31 07:50:24;;;;;;;7.20;5.30;;;;;;;;;;5040017;28;20238;-79
2020/12/31 07:52:52;;;;;;;6.97;5.10;;;;;;;;;;4994245;28;20239;-79
2020/12/31 07:55:20;;;;;;;6.83;5.10;;;;;;;;;;5024959;28;20208;-79
2020/12/31 07:57:49;;;;;;;8.40;5.20;;;;;;;;;;5022199;28;20243;-79
2020/12/31 08:00:19;;;;;;;8.03;5.90;;;;;;;;;;4992079;28;20224;-79
2020/12/31 08:02:49;;;;;;;7.13;5.70;;;;;;;;;;4997339;28;20240;-79
2020/12/31 08:05:19;;;;;;;9.47;6.37;;;;;;;;;;5020047;28;20244;-79
2020/12/31 08:07:51;;;;;;;6.27;5.23;;;;;;;;;;5004049;28;20233;-79
2020/12/31 08:10:33;;;;;;;7.33;5.27;;;;;;;;;;5007696;28;20605;-79
2020/12/31 08:13:04;;;;;;;7.13;5.40;;;;;;;;;;5034035;28;20235;-79
2020/12/31 08:15:34;;;;;;;8.33;5.37;;;;;;;;;;5009700;28;20229;-79
2020/12/31 08:18:04;;;;;;;6.77;4.97;;;;;;;;;;4998577;28;20228;-80
2020/12/31 08:20:38;;;;;;;6.83;4.73;;;;;;;;;;5000455;28;20207;-79
2020/12/31 08:23:14;;;;;;;6.23;4.73;;;;;;;;;;5000824;28;20224;-80
2020/12/31 08:25:46;;;;;;;6.50;4.63;;;;;;;;;;5006648;28;20228;-79
2020/12/31 08:28:18;;;;;;;6.27;5.00;;;;;;;;;;4991922;28;20238;-80
2020/12/31 08:30:49;;;;;;;4.67;3.70;;;;;;;;;;4995267;28;20243;-79
2020/12/31 08:39:57;;;;;;;5.47;4.40;;;;;;;;;;5702075;23;20644;-79
2020/12/31 08:42:26;;;;;;;5.23;3.80;;;;;;;;;;4886087;29;20241;-80
2020/12/31 08:44:56;;;;;;;5.10;3.70;;;;;;;;;;4867829;29;20731;-79
2020/12/31 08:47:26;;;;;;;5.30;3.73;;;;;;;;;;4897235;29;20232;-81
2020/12/31 08:49:58;;;;;;;5.33;3.70;;;;;;;;;;4872786;29;20230;-82
2020/12/31 08:52:29;;;;;;;4.40;3.50;;;;;;;;;;4873754;29;20226;-81
2020/12/31 08:55:08;;;;;;;5.20;4.07;;;;;;;;;;4861045;29;20214;-81
2020/12/31 08:57:39;;;;;;;5.90;4.30;;;;;;;;;;4880211;29;20213;-81
2020/12/31 09:00:10;;;;;;;6.27;3.80;;;;;;;;;;4899199;29;20236;-81
2020/12/31 09:02:41;;;;;;;5.20;2.80;;;;;;;;;;4867154;29;20236;-81
2020/12/31 09:05:16;;;;;;;4.43;3.40;;;;;;;;;;4872182;29;20608;-81
2020/12/31 09:07:47;;;;;;;4.00;3.23;;;;;;;;;;4856341;29;20248;-81
2020/12/31 09:10:20;;;;;;;5.53;3.10;;;;;;;;;;4881245;29;20201;-82
2020/12/31 09:12:50;;;;;;;3.63;3.00;;;;;;;;;;4888445;29;20501;-82
2020/12/31 09:15:22;;;;;;;4.17;3.17;;;;;;;;;;4882063;29;20240;-81
2020/12/31 09:17:52;;;;;;;5.97;4.00;;;;;;;;;;4856784;29;20212;-81
2020/12/31 09:20:26;;;;;;;5.03;3.90;;;;;;;;;;4894287;29;20714;-81
2020/12/31 09:23:09;;;;;;;4.90;4.07;;;;;;;;;;4872160;29;20234;-81
2020/12/31 09:25:50;;;;;;;5.63;4.10;;;;;;;;;;4849784;29;20194;-81
2020/12/31 09:28:21;;;;;;;5.80;4.40;;;;;;;;;;4872454;29;20250;-81
2020/12/31 09:30:51;;;;;;;5.37;3.80;;;;;;;;;;4864141;29;20225;-81
2020/12/31 09:33:25;;;;;;;4.27;3.47;;;;;;;;;;4860000;29;20236;-81
2020/12/31 09:35:56;;;;;;;6.37;3.43;;;;;;;;;;4867197;29;20205;-81
2020/12/31 09:38:28;;;;;;;4.43;3.70;;;;;;;;;;4870190;29;20192;-81
2020/12/31 09:40:59;;;;;;;4.40;3.60;;;;;;;;;;4873190;29;20235;-81
2020/12/31 09:43:29;;;;;;;4.30;3.63;;;;;;;;;;4901208;29;20240;-82
2020/12/31 09:46:29;;;;;;;4.80;3.27;;;;;;;;;;4894190;29;20251;-81
2020/12/31 09:49:00;;;;;;;4.57;3.13;;;;;;;;;;4874762;29;20609;-81
2020/12/31 09:51:31;;;;;;;5.00;3.67;;;;;;;;;;4875681;29;20244;-81
2020/12/31 09:54:03;;;;;;;5.00;2.93;;;;;;;;;;4875107;29;20202;-81
2020/12/31 09:56:45;;;;;;;3.80;2.40;;;;;;;;;;4866788;29;20206;-81
2020/12/31 09:59:16;;;;;;;3.67;3.03;;;;;;;;;;4873402;29;20209;-81
2020/12/31 10:01:47;;;;;;;3.90;3.27;;;;;;;;;;4900575;29;20212;-81
2020/12/31 10:04:18;;;;;;;4.20;3.50;;;;;;;;;;4883415;29;20201;-82
2020/12/31 10:06:49;;;;;;;4.00;3.10;;;;;;;;;;4863361;29;20213;-82
2020/12/31 10:09:20;;;;;;;4.67;3.13;;;;;;;;;;4854010;29;20722;-82
2020/12/31 10:11:54;;;;;;;6.90;3.30;;;;;;;;;;4928289;23;20704;-82
2020/12/31 10:14:25;;;;;;;4.50;3.37;;;;;;;;;;4883108;29;20236;-82
2020/12/31 10:16:57;;;;;;;4.07;2.53;;;;;;;;;;4886205;29;20228;-82
2020/12/31 10:19:29;;;;;;;5.23;3.00;;;;;;;;;;4875308;29;20241;-82
2020/12/31 10:22:00;;;;;;;4.00;2.90;;;;;;;;;;4858753;29;20718;-82
2020/12/31 10:24:32;;;;;;;5.93;2.63;;;;;;;;;;4881473;29;20242;-84
2020/12/31 10:27:08;;;;;;;5.03;2.97;;;;;;;;;;4868051;29;20744;-82
2020/12/31 10:29:42;;;;;;;3.80;2.73;;;;;;;;;;4858959;29;20252;-82
2020/12/31 10:32:15;;;;;;;4.93;3.10;;;;;;;;;;4871191;29;20233;-82
2020/12/31 10:34:47;;;;;;;5.27;2.80;;;;;;;;;;4867128;29;20222;-81
2020/12/31 10:37:20;;;;;;;6.03;2.90;;;;;;;;;;4869933;29;20233;-81
2020/12/31 10:39:52;;;;;;;3.73;2.40;;;;;;;;;;4863587;29;20233;-82
2020/12/31 10:42:27;;;;;;;3.77;2.50;;;;;;;;;;4868932;29;20225;-82
2020/12/31 10:44:59;;;;;;;4.20;2.77;;;;;;;;;;4858588;29;20247;-81
2020/12/31 10:47:30;;;;;;;4.20;2.80;;;;;;;;;;4863754;29;20233;-81
2020/12/31 10:50:01;;;;;;;3.00;2.57;;;;;;;;;;4879919;29;20236;-81
2020/12/31 10:52:31;;;;;;;2.93;2.57;;;;;;;;;;4864334;29;20233;-81
2020/12/31 10:55:02;;;;;;;3.43;2.67;;;;;;;;;;4865178;29;20628;-82
2020/12/31 10:57:34;;;;;;;5.07;3.00;;;;;;;;;;4874069;29;20634;-82
2020/12/31 11:00:06;;;;;;;3.70;3.00;;;;;;;;;;4874296;29;20251;-82
2020/12/31 11:02:36;;;;;;;3.43;2.50;;;;;;;;;;4866612;29;20615;-81
2020/12/31 11:05:06;;;;;;;2.80;2.20;;;;;;;;;;4889116;29;20239;-81
2020/12/31 11:07:37;;;;;;;3.73;2.63;;;;;;;;;;4868295;29;20244;-82
2020/12/31 11:10:08;;;;;;;4.00;2.80;;;;;;;;;;4848310;29;20256;-85
2020/12/31 11:12:39;;;;;;;2.77;2.47;;;;;;;;;;4850472;29;20568;-85
2020/12/31 11:15:11;;;;;;;3.23;2.70;;;;;;;;;;4867111;29;20618;-82
2020/12/31 11:17:41;;;;;;;3.40;2.80;;;;;;;;;;4866159;29;20221;-82
2020/12/31 11:20:11;;;;;;;4.40;2.80;;;;;;;;;;4874376;29;20707;-82
2020/12/31 11:22:42;;;;;;;3.37;2.60;;;;;;;;;;4873783;29;20232;-82
2020/12/31 11:25:13;;;;;;;3.17;2.87;;;;;;;;;;4885514;29;20232;-82
2020/12/31 11:27:45;;;;;;;5.10;2.87;;;;;;;;;;4875612;29;20240;-82
2020/12/31 11:30:15;;;;;;;2.63;2.20;;;;;;;;;;4867471;29;20232;-82
2020/12/31 11:32:46;;;;;;;2.97;2.67;;;;;;;;;;4869337;29;20232;-81
2020/12/31 11:35:18;;;;;;;3.80;2.93;;;;;;;;;;4873426;29;20232;-82
2020/12/31 11:37:47;;;;;;;3.73;2.37;;;;;;;;;;4895972;29;20257;-81
2020/12/31 11:40:19;;;;;;;2.80;2.50;;;;;;;;;;4864294;29;20233;-81
2020/12/31 11:42:51;;;;;;;4.13;2.57;;;;;;;;;;4872905;29;20306;-82
2020/12/31 11:45:21;;;;;;;3.30;2.77;;;;;;;;;;4867868;29;20213;-81
2020/12/31 11:47:52;;;;;;;2.90;2.53;;;;;;;;;;4869635;29;20564;-81
2020/12/31 11:50:24;;;;;;;2.97;2.57;;;;;;;;;;4869209;29;20209;-82
2020/12/31 11:52:56;;;;;;;3.93;2.80;;;;;;;;;;4865025;29;20236;-81
2020/12/31 11:55:26;;;;;;;2.87;2.43;;;;;;;;;;4869593;29;20208;-82
2020/12/31 11:57:58;;;;;;;4.03;2.70;;;;;;;;;;4876455;29;20236;-80
2020/12/31 12:00:29;;;;;;;3.67;2.40;;;;;;;;;;4870398;29;20829;-81
2020/12/31 12:02:59;;;;;;;3.00;2.80;;;;;;;;;;4876432;29;20229;-81
2020/12/31 12:05:29;;;;;;;3.77;2.63;;;;;;;;;;4874003;29;20212;-81
2020/12/31 12:08:01;;;;;;;3.20;2.20;;;;;;;;;;4870149;29;20664;-80
2020/12/31 12:10:32;;;;;;;3.83;2.50;;;;;;;;;;4885555;29;20218;-80
2020/12/31 12:13:05;;;;;;;2.77;1.90;;;;;;;;;;4888287;29;20243;-84
2020/12/31 12:15:35;;;;;;;3.67;2.20;;;;;;;;;;4894614;29;20729;-82
2020/12/31 12:18:06;;;;;;;3.00;2.50;;;;;;;;;;4867612;29;20211;-81
2020/12/31 12:20:36;;;;;;;3.90;2.30;;;;;;;;;;4867318;29;20209;-82
2020/12/31 12:23:07;;;;;;;3.60;2.33;;;;;;;;;;4870948;29;20235;-82
2020/12/31 12:25:39;;;;;;;3.40;2.43;;;;;;;;;;4879381;29;20239;-82
2020/12/31 12:28:10;;;;;;;5.50;2.80;;;;;;;;;;4865566;29;20233;-82
2020/12/31 12:30:41;;;;;;;5.43;2.60;;;;;;;;;;4868220;29;20212;-81
2020/12/31 12:33:13;;;;;;;3.00;2.33;;;;;;;;;;4883020;29;20240;-84
2020/12/31 12:35:43;;;;;;;3.10;2.70;;;;;;;;;;4882911;29;20204;-82
2020/12/31 12:38:16;;;;;;;3.20;2.67;;;;;;;;;;4880255;29;20244;-81
2020/12/31 12:40:47;;;;;;;4.07;2.63;;;;;;;;;;4879801;29;20236;-81
2020/12/31 12:43:19;;;;;;;2.43;2.10;;;;;;;;;;4874942;29;20650;-82
2020/12/31 12:45:48;;;;;;;4.03;2.73;;;;;;;;;;4871431;29;20714;-82
2020/12/31 12:48:19;;;;;;;2.73;2.00;;;;;;;;;;4886623;29;20240;-81
2020/12/31 12:50:50;;;;;;;2.97;2.07;;;;;;;;;;4873404;29;20244;-82
2020/12/31 12:53:20;;;;;;;3.60;2.60;;;;;;;;;;4864057;29;20230;-82
2020/12/31 12:55:51;;;;;;;3.00;2.43;;;;;;;;;;4860055;29;20224;-83
2020/12/31 12:58:23;;;;;;;2.30;2.10;;;;;;;;;;4864771;29;20236;-82
2020/12/31 13:00:55;;;;;;;2.70;2.17;;;;;;;;;;4865898;29;20233;-81
2020/12/31 13:03:27;;;;;;;2.50;2.20;;;;;;;;;;4882125;29;20217;-82
2020/12/31 13:05:59;;;;;;;3.00;2.30;;;;;;;;;;4866868;29;20239;-82
2020/12/31 13:08:32;;;;;;;2.53;2.00;;;;;;;;;;4883745;29;20229;-82
2020/12/31 13:11:02;;;;;;;2.67;2.23;;;;;;;;;;4869833;29;20231;-86
2020/12/31 13:13:33;;;;;;;3.43;2.30;;;;;;;;;;4868808;29;20233;-83
2020/12/31 13:16:07;;;;;;;3.13;2.50;;;;;;;;;;4873835;29;20235;-83
2020/12/31 13:18:38;;;;;;;3.23;2.40;;;;;;;;;;4882886;29;20232;-83
2020/12/31 13:21:09;;;;;;;3.33;2.20;;;;;;;;;;4882819;29;20232;-82
2020/12/31 13:23:39;;;;;;;4.00;2.50;;;;;;;;;;4873291;29;20244;-82
2020/12/31 13:26:09;;;;;;;3.87;1.80;;;;;;;;;;4880951;29;20239;-82
2020/12/31 13:28:41;;;;;;;3.23;2.53;;;;;;;;;;4872753;29;20698;-83
2020/12/31 13:31:12;;;;;;;3.97;2.50;;;;;;;;;;4901121;29;20239;-82
2020/12/31 13:33:43;;;;;;;2.93;2.20;;;;;;;;;;4872281;29;20723;-82
2020/12/31 13:36:14;;;;;;;3.30;2.20;;;;;;;;;;4876577;29;20235;-83
2020/12/31 13:38:46;;;;;;;2.97;2.67;;;;;;;;;;4899748;29;20236;-82
2020/12/31 13:41:18;;;;;;;4.43;2.67;;;;;;;;;;4900514;29;20673;-82
2020/12/31 13:43:49;;;;;;;3.33;2.30;;;;;;;;;;4884514;29;20725;-82
2020/12/31 13:46:22;;;;;;;3.37;2.40;;;;;;;;;;4889070;29;20198;-89
2020/12/31 13:48:57;;;;;;;3.97;2.33;;;;;;;;;;4884806;29;20224;-88
2020/12/31 13:51:28;;;;;;;3.60;2.80;;;;;;;;;;4899840;29;20216;-89
2020/12/31 13:53:59;;;;;;;4.07;2.47;;;;;;;;;;5094717;23;20235;-87
2020/12/31 13:56:30;;;;;;;3.87;2.50;;;;;;;;;;4889687;29;20235;-89
2020/12/31 13:59:02;;;;;;;4.63;2.70;;;;;;;;;;4889926;29;20244;-82
2020/12/31 14:01:33;;;;;;;2.90;2.43;;;;;;;;;;4876987;29;20722;-81
2020/12/31 14:04:07;;;;;;;3.83;2.63;;;;;;;;;;4852233;29;20599;-81
2020/12/31 14:06:39;;;;;;;3.60;2.47;;;;;;;;;;4861846;29;20237;-80
2020/12/31 14:09:11;;;;;;;3.90;2.57;;;;;;;;;;4874861;29;20233;-81
2020/12/31 14:11:42;;;;;;;3.23;2.67;;;;;;;;;;4863471;29;20194;-81
2020/12/31 14:14:15;;;;;;;3.43;2.50;;;;;;;;;;4863481;29;20201;-81
2020/12/31 14:16:46;;;;;;;3.17;2.43;;;;;;;;;;4863311;29;20213;-81
2020/12/31 14:19:17;;;;;;;3.20;2.37;;;;;;;;;;4860203;29;20214;-81
2020/12/31 14:21:48;;;;;;;2.80;2.13;;;;;;;;;;4844651;29;20199;-81
2020/12/31 14:24:22;;;;;;;2.73;1.90;;;;;;;;;;4858272;29;20228;-81
2020/12/31 14:26:58;;;;;;;3.37;2.27;;;;;;;;;;4861738;29;20229;-83
2020/12/31 14:29:31;;;;;;;3.83;2.37;;;;;;;;;;4863575;29;20232;-81
2020/12/31 14:32:03;;;;;;;3.20;2.67;;;;;;;;;;4855061;29;20229;-81
2020/12/31 14:34:35;;;;;;;4.07;2.40;;;;;;;;;;4857307;29;20206;-81
2020/12/31 14:37:06;;;;;;;3.07;2.10;;;;;;;;;;4847674;29;20633;-82
2020/12/31 14:39:38;;;;;;;4.37;2.43;;;;;;;;;;4847192;29;20206;-81
2020/12/31 14:42:09;;;;;;;5.30;2.30;;;;;;;;;;4861963;29;20695;-81
2020/12/31 14:44:42;;;;;;;4.10;2.53;;;;;;;;;;4848403;29;20236;-82
2020/12/31 14:47:13;;;;;;;3.80;2.50;;;;;;;;;;4864988;29;20221;-81
2020/12/31 14:49:43;;;;;;;3.03;2.33;;;;;;;;;;4863147;29;20215;-80
2020/12/31 14:52:15;;;;;;;5.17;3.00;;;;;;;;;;4862973;29;20240;-80
2020/12/31 14:54:47;;;;;;;3.70;2.40;;;;;;;;;;4849225;29;20217;-81
2020/12/31 14:57:18;;;;;;;3.20;2.70;;;;;;;;;;4865498;29;20213;-82
2020/12/31 14:59:50;;;;;;;3.17;2.47;;;;;;;;;;4879130;29;20229;-81
2020/12/31 15:02:21;;;;;;;4.50;2.70;;;;;;;;;;4884583;29;20718;-81
2020/12/31 15:04:52;;;;;;;3.67;2.90;;;;;;;;;;4863236;29;20312;-81
2020/12/31 15:07:24;;;;;;;2.87;2.27;;;;;;;;;;4850660;29;20280;-81
2020/12/31 15:09:57;;;;;;;3.43;2.67;;;;;;;;;;4879736;29;20244;-82